Startpagina
METAR-TAF:

METAR-TAF

Vliegvelden :

Aéroport Valence-Chabeuil

Valence, Frankrijk

breedte: 44-54-58N, lengte: 4-58-06E, hoogte: 160 m

Actueel weer

Dit bericht is 29 minuten geleden gemaakt, om 11:30 UTC
Wind 6 kt uit het zuidzuidwesten, variërend tussen het zuidzuidoosten en het westen
Temperatuur 30°C
Vochtigheid 31%
Druk 1023 hPa
Zicht 10 km of meer
geen wolken onder 1500 m en geen cumulonimbus

METAR: LFLU 151130Z AUTO 20006KT 160V270 CAVOK 30/11 Q1023

Tijdstip: 13:59 (11:59 UTC)


TAF: ontbreekt

Waarnemingen en weersverwachtingen van meer dan 4000 vliegvelden (METAR en TAF).

De beschikbare stations zijn de gele en rode punten op de kaart.

Ga met uw muis naar het station om de naam te zien.

Klik dan om waarnemingen en weersverwachtingen te zien.

kaart wijzigen: klik op de groene knoppen met een zwart kruis om in te zoomen, op de groene knop met een streepje om uit te zoomen of op de groene pijlen voor aangrenzende kaarten.


METAR-TAF: